sensor_id;sensor_type;location;lat;lon;timestamp;temperature;humidity
47521;DHT22;32291;52.010;4.446;2023-02-21T00:01:14;8.40;99.90
47521;DHT22;32291;52.010;4.446;2023-02-21T00:02:34;8.50;99.90
47521;DHT22;32291;52.010;4.446;2023-02-21T00:03:54;8.40;99.90
47521;DHT22;32291;52.010;4.446;2023-02-21T00:05:14;8.50;99.90
47521;DHT22;32291;52.010;4.446;2023-02-21T00:06:35;8.50;99.90
47521;DHT22;32291;52.010;4.446;2023-02-21T00:07:55;8.50;99.90
47521;DHT22;32291;52.010;4.446;2023-02-21T00:09:15;8.50;99.90
47521;DHT22;32291;52.010;4.446;2023-02-21T00:10:36;8.50;99.90
47521;DHT22;32291;52.010;4.446;2023-02-21T00:11:56;8.50;99.90
47521;DHT22;32291;52.010;4.446;2023-02-21T00:13:16;8.50;99.90
47521;DHT22;32291;52.010;4.446;2023-02-21T00:14:37;8.50;99.90
47521;DHT22;32291;52.010;4.446;2023-02-21T00:15:57;8.50;99.90
47521;DHT22;32291;52.010;4.446;2023-02-21T00:17:17;8.50;99.90
47521;DHT22;32291;52.010;4.446;2023-02-21T00:18:37;8.50;99.90
47521;DHT22;32291;52.010;4.446;2023-02-21T00:19:57;8.50;99.90
47521;DHT22;32291;52.010;4.446;2023-02-21T00:21:18;8.50;99.90
47521;DHT22;32291;52.010;4.446;2023-02-21T00:22:38;8.50;99.90
47521;DHT22;32291;52.010;4.446;2023-02-21T00:23:58;8.50;99.90
47521;DHT22;32291;52.010;4.446;2023-02-21T00:25:18;8.50;99.90
47521;DHT22;32291;52.010;4.446;2023-02-21T00:26:38;8.50;99.90
47521;DHT22;32291;52.010;4.446;2023-02-21T00:28:00;8.50;99.90
47521;DHT22;32291;52.010;4.446;2023-02-21T00:29:20;8.50;99.90
47521;DHT22;32291;52.010;4.446;2023-02-21T00:30:40;8.50;99.90
47521;DHT22;32291;52.010;4.446;2023-02-21T00:32:00;8.50;99.90
47521;DHT22;32291;52.010;4.446;2023-02-21T00:33:20;8.60;99.90
47521;DHT22;32291;52.010;4.446;2023-02-21T00:34:40;8.60;99.90
47521;DHT22;32291;52.010;4.446;2023-02-21T00:36:00;8.60;99.90
47521;DHT22;32291;52.010;4.446;2023-02-21T00:37:20;8.50;99.90
47521;DHT22;32291;52.010;4.446;2023-02-21T00:38:39;8.60;99.90
47521;DHT22;32291;52.010;4.446;2023-02-21T00:40:00;8.60;99.90
47521;DHT22;32291;52.010;4.446;2023-02-21T00:41:20;8.60;99.90
47521;DHT22;32291;52.010;4.446;2023-02-21T00:42:40;8.60;99.90
47521;DHT22;32291;52.010;4.446;2023-02-21T00:44:00;8.60;99.90
47521;DHT22;32291;52.010;4.446;2023-02-21T00:45:20;8.60;99.90
47521;DHT22;32291;52.010;4.446;2023-02-21T00:46:41;8.60;99.90
47521;DHT22;32291;52.010;4.446;2023-02-21T00:48:01;8.70;99.90
47521;DHT22;32291;52.010;4.446;2023-02-21T00:49:20;8.60;99.90
47521;DHT22;32291;52.010;4.446;2023-02-21T00:50:41;8.60;99.90
47521;DHT22;32291;52.010;4.446;2023-02-21T00:52:01;8.60;99.90
47521;DHT22;32291;52.010;4.446;2023-02-21T00:53:23;8.60;99.90
47521;DHT22;32291;52.010;4.446;2023-02-21T00:54:43;8.70;99.90
47521;DHT22;32291;52.010;4.446;2023-02-21T00:56:04;8.60;99.90
47521;DHT22;32291;52.010;4.446;2023-02-21T00:57:24;8.50;99.90
47521;DHT22;32291;52.010;4.446;2023-02-21T00:58:44;8.60;99.90
47521;DHT22;32291;52.010;4.446;2023-02-21T01:00:06;8.60;99.90
47521;DHT22;32291;52.010;4.446;2023-02-21T01:01:26;8.60;99.90
47521;DHT22;32291;52.010;4.446;2023-02-21T01:02:47;8.60;99.90
47521;DHT22;32291;52.010;4.446;2023-02-21T01:04:07;8.60;99.90
47521;DHT22;32291;52.010;4.446;2023-02-21T01:05:27;8.60;99.90
47521;DHT22;32291;52.010;4.446;2023-02-21T01:06:50;8.60;99.90
47521;DHT22;32291;52.010;4.446;2023-02-21T01:08:09;8.60;99.90
47521;DHT22;32291;52.010;4.446;2023-02-21T01:09:30;8.60;99.90
47521;DHT22;32291;52.010;4.446;2023-02-21T01:10:51;8.60;99.90
47521;DHT22;32291;52.010;4.446;2023-02-21T01:12:11;8.60;99.90
47521;DHT22;32291;52.010;4.446;2023-02-21T01:13:31;8.70;99.90
47521;DHT22;32291;52.010;4.446;2023-02-21T01:14:51;8.70;99.90
47521;DHT22;32291;52.010;4.446;2023-02-21T01:16:11;8.70;99.90
47521;DHT22;32291;52.010;4.446;2023-02-21T01:17:31;8.70;99.90
47521;DHT22;32291;52.010;4.446;2023-02-21T01:18:51;8.70;99.90
47521;DHT22;32291;52.010;4.446;2023-02-21T01:20:12;8.70;99.90
47521;DHT22;32291;52.010;4.446;2023-02-21T01:21:31;8.70;99.90
47521;DHT22;32291;52.010;4.446;2023-02-21T01:22:51;8.70;99.90
47521;DHT22;32291;52.010;4.446;2023-02-21T01:24:14;8.70;99.90
47521;DHT22;32291;52.010;4.446;2023-02-21T01:25:34;8.70;99.90
47521;DHT22;32291;52.010;4.446;2023-02-21T01:26:54;8.70;99.90
47521;DHT22;32291;52.010;4.446;2023-02-21T01:28:14;8.80;99.90
47521;DHT22;32291;52.010;4.446;2023-02-21T01:29:34;8.80;99.90
47521;DHT22;32291;52.010;4.446;2023-02-21T01:30:54;8.80;99.90
47521;DHT22;32291;52.010;4.446;2023-02-21T01:32:14;8.80;99.90
47521;DHT22;32291;52.010;4.446;2023-02-21T01:33:39;8.80;99.90
47521;DHT22;32291;52.010;4.446;2023-02-21T01:34:59;8.80;99.90
47521;DHT22;32291;52.010;4.446;2023-02-21T01:36:19;8.80;99.90
47521;DHT22;32291;52.010;4.446;2023-02-21T01:37:40;8.70;99.90
47521;DHT22;32291;52.010;4.446;2023-02-21T01:39:01;8.80;99.90
47521;DHT22;32291;52.010;4.446;2023-02-21T01:40:21;8.80;99.90
47521;DHT22;32291;52.010;4.446;2023-02-21T01:41:40;8.80;99.90
47521;DHT22;32291;52.010;4.446;2023-02-21T01:43:00;8.80;99.90
47521;DHT22;32291;52.010;4.446;2023-02-21T01:44:36;8.80;99.90
47521;DHT22;32291;52.010;4.446;2023-02-21T01:45:57;8.80;99.90
47521;DHT22;32291;52.010;4.446;2023-02-21T01:47:18;8.90;99.90
47521;DHT22;32291;52.010;4.446;2023-02-21T01:48:38;8.80;99.90
47521;DHT22;32291;52.010;4.446;2023-02-21T01:50:00;8.80;99.90
47521;DHT22;32291;52.010;4.446;2023-02-21T01:51:25;8.90;99.90
47521;DHT22;32291;52.010;4.446;2023-02-21T01:52:46;8.90;99.90
47521;DHT22;32291;52.010;4.446;2023-02-21T01:54:08;8.90;99.90
47521;DHT22;32291;52.010;4.446;2023-02-21T01:55:29;8.80;99.90
47521;DHT22;32291;52.010;4.446;2023-02-21T01:56:51;8.80;99.90
47521;DHT22;32291;52.010;4.446;2023-02-21T01:58:11;8.80;99.90
47521;DHT22;32291;52.010;4.446;2023-02-21T01:59:31;8.80;99.90
47521;DHT22;32291;52.010;4.446;2023-02-21T02:00:51;8.70;99.90
47521;DHT22;32291;52.010;4.446;2023-02-21T02:02:26;8.80;99.90
47521;DHT22;32291;52.010;4.446;2023-02-21T02:03:47;8.80;99.90
47521;DHT22;32291;52.010;4.446;2023-02-21T02:05:08;8.80;99.90
47521;DHT22;32291;52.010;4.446;2023-02-21T02:06:29;8.80;99.90
47521;DHT22;32291;52.010;4.446;2023-02-21T02:07:50;8.80;99.90
47521;DHT22;32291;52.010;4.446;2023-02-21T02:09:16;8.80;99.90
47521;DHT22;32291;52.010;4.446;2023-02-21T02:10:36;8.70;99.90
47521;DHT22;32291;52.010;4.446;2023-02-21T02:16:41;8.80;99.90
47521;DHT22;32291;52.010;4.446;2023-02-21T02:17:59;8.80;99.90
47521;DHT22;32291;52.010;4.446;2023-02-21T02:26:31;8.90;99.90
47521;DHT22;32291;52.010;4.446;2023-02-21T02:28:07;9.00;99.90
47521;DHT22;32291;52.010;4.446;2023-02-21T02:34:36;9.00;99.90
47521;DHT22;32291;52.010;4.446;2023-02-21T02:35:55;9.00;99.90
47521;DHT22;32291;52.010;4.446;2023-02-21T02:37:13;8.90;99.90
47521;DHT22;32291;52.010;4.446;2023-02-21T02:38:25;8.90;99.90
47521;DHT22;32291;52.010;4.446;2023-02-21T02:39:58;8.90;99.90
47521;DHT22;32291;52.010;4.446;2023-02-21T02:43:48;8.90;99.90
47521;DHT22;32291;52.010;4.446;2023-02-21T02:45:01;8.90;99.90
47521;DHT22;32291;52.010;4.446;2023-02-21T02:46:21;8.90;99.90
47521;DHT22;32291;52.010;4.446;2023-02-21T02:47:28;8.90;99.90
47521;DHT22;32291;52.010;4.446;2023-02-21T02:48:42;8.80;99.90
47521;DHT22;32291;52.010;4.446;2023-02-21T02:49:44;8.90;99.90
47521;DHT22;32291;52.010;4.446;2023-02-21T02:50:47;8.90;99.90
47521;DHT22;32291;52.010;4.446;2023-02-21T02:51:50;8.80;99.90
47521;DHT22;32291;52.010;4.446;2023-02-21T02:52:54;8.80;99.90
47521;DHT22;32291;52.010;4.446;2023-02-21T02:53:56;8.90;99.90
47521;DHT22;32291;52.010;4.446;2023-02-21T02:55:00;8.80;99.90
47521;DHT22;32291;52.010;4.446;2023-02-21T02:56:07;8.80;99.90
47521;DHT22;32291;52.010;4.446;2023-02-21T02:57:12;8.80;99.90
47521;DHT22;32291;52.010;4.446;2023-02-21T02:58:13;8.80;99.90
47521;DHT22;32291;52.010;4.446;2023-02-21T02:59:20;8.80;99.90
47521;DHT22;32291;52.010;4.446;2023-02-21T03:00:21;8.80;99.90
47521;DHT22;32291;52.010;4.446;2023-02-21T03:11:06;8.60;99.90
47521;DHT22;32291;52.010;4.446;2023-02-21T03:13:42;8.70;99.90
47521;DHT22;32291;52.010;4.446;2023-02-21T03:14:50;8.70;99.90
47521;DHT22;32291;52.010;4.446;2023-02-21T03:16:08;8.80;99.90
47521;DHT22;32291;52.010;4.446;2023-02-21T03:17:16;8.80;99.90
47521;DHT22;32291;52.010;4.446;2023-02-21T03:18:47;8.80;99.90
47521;DHT22;32291;52.010;4.446;2023-02-21T03:19:51;8.80;99.90
47521;DHT22;32291;52.010;4.446;2023-02-21T03:20:57;8.80;99.90
47521;DHT22;32291;52.010;4.446;2023-02-21T03:22:10;8.80;99.90
47521;DHT22;32291;52.010;4.446;2023-02-21T03:23:15;8.80;99.90
47521;DHT22;32291;52.010;4.446;2023-02-21T03:24:19;8.80;99.90
47521;DHT22;32291;52.010;4.446;2023-02-21T03:25:23;8.80;99.90
47521;DHT22;32291;52.010;4.446;2023-02-21T03:26:27;8.80;99.90
47521;DHT22;32291;52.010;4.446;2023-02-21T03:27:32;8.80;99.90
47521;DHT22;32291;52.010;4.446;2023-02-21T03:28:35;8.90;99.90
47521;DHT22;32291;52.010;4.446;2023-02-21T03:29:38;8.80;99.90
47521;DHT22;32291;52.010;4.446;2023-02-21T03:30:41;8.80;99.90
47521;DHT22;32291;52.010;4.446;2023-02-21T03:31:47;8.80;99.90
47521;DHT22;32291;52.010;4.446;2023-02-21T03:32:51;8.80;99.90
47521;DHT22;32291;52.010;4.446;2023-02-21T03:33:53;8.90;99.90
47521;DHT22;32291;52.010;4.446;2023-02-21T03:34:55;8.90;99.90
47521;DHT22;32291;52.010;4.446;2023-02-21T03:35:58;8.90;99.90
47521;DHT22;32291;52.010;4.446;2023-02-21T03:37:00;8.80;99.90
47521;DHT22;32291;52.010;4.446;2023-02-21T03:38:01;8.80;99.90
47521;DHT22;32291;52.010;4.446;2023-02-21T03:39:04;8.80;99.90
47521;DHT22;32291;52.010;4.446;2023-02-21T03:40:09;8.80;99.90
47521;DHT22;32291;52.010;4.446;2023-02-21T03:41:11;8.80;99.90
47521;DHT22;32291;52.010;4.446;2023-02-21T03:42:13;8.80;99.90
47521;DHT22;32291;52.010;4.446;2023-02-21T03:43:14;8.80;99.90
47521;DHT22;32291;52.010;4.446;2023-02-21T03:44:16;8.70;99.90
47521;DHT22;32291;52.010;4.446;2023-02-21T03:45:18;8.70;99.90
47521;DHT22;32291;52.010;4.446;2023-02-21T03:46:19;8.80;99.90
47521;DHT22;32291;52.010;4.446;2023-02-21T03:47:20;8.80;99.90
47521;DHT22;32291;52.010;4.446;2023-02-21T03:48:22;8.80;99.90
47521;DHT22;32291;52.010;4.446;2023-02-21T03:49:23;8.80;99.90
47521;DHT22;32291;52.010;4.446;2023-02-21T03:50:25;8.80;99.90
47521;DHT22;32291;52.010;4.446;2023-02-21T03:51:26;8.80;99.90
47521;DHT22;32291;52.010;4.446;2023-02-21T03:52:28;8.80;99.90
47521;DHT22;32291;52.010;4.446;2023-02-21T03:53:29;8.90;99.90
47521;DHT22;32291;52.010;4.446;2023-02-21T03:54:30;8.80;99.90
47521;DHT22;32291;52.010;4.446;2023-02-21T03:55:32;8.80;99.90
47521;DHT22;32291;52.010;4.446;2023-02-21T03:56:33;8.80;99.90
47521;DHT22;32291;52.010;4.446;2023-02-21T03:57:35;8.80;99.90
47521;DHT22;32291;52.010;4.446;2023-02-21T03:58:37;8.90;99.90
47521;DHT22;32291;52.010;4.446;2023-02-21T03:59:38;8.80;99.90
47521;DHT22;32291;52.010;4.446;2023-02-21T04:00:39;8.80;99.90
47521;DHT22;32291;52.010;4.446;2023-02-21T04:01:40;8.80;99.90
47521;DHT22;32291;52.010;4.446;2023-02-21T04:02:42;8.80;99.90
47521;DHT22;32291;52.010;4.446;2023-02-21T04:03:44;8.80;99.90
47521;DHT22;32291;52.010;4.446;2023-02-21T04:04:46;8.80;99.90
47521;DHT22;32291;52.010;4.446;2023-02-21T04:05:49;8.90;99.90
47521;DHT22;32291;52.010;4.446;2023-02-21T04:06:50;8.90;99.90
47521;DHT22;32291;52.010;4.446;2023-02-21T04:07:52;8.90;99.90
47521;DHT22;32291;52.010;4.446;2023-02-21T04:08:54;8.90;99.90
47521;DHT22;32291;52.010;4.446;2023-02-21T04:09:56;8.90;99.90
47521;DHT22;32291;52.010;4.446;2023-02-21T04:10:57;8.90;99.90
47521;DHT22;32291;52.010;4.446;2023-02-21T04:11:59;8.90;99.90
47521;DHT22;32291;52.010;4.446;2023-02-21T04:13:01;8.80;99.90
47521;DHT22;32291;52.010;4.446;2023-02-21T04:14:02;8.80;99.90
47521;DHT22;32291;52.010;4.446;2023-02-21T04:15:04;8.90;99.90
47521;DHT22;32291;52.010;4.446;2023-02-21T04:16:06;8.90;99.90
47521;DHT22;32291;52.010;4.446;2023-02-21T04:17:07;8.80;99.90
47521;DHT22;32291;52.010;4.446;2023-02-21T04:18:09;8.80;99.90
47521;DHT22;32291;52.010;4.446;2023-02-21T04:19:10;8.90;99.90
47521;DHT22;32291;52.010;4.446;2023-02-21T04:20:13;8.90;99.90
47521;DHT22;32291;52.010;4.446;2023-02-21T04:21:16;8.80;99.90
47521;DHT22;32291;52.010;4.446;2023-02-21T04:22:18;8.90;99.90
47521;DHT22;32291;52.010;4.446;2023-02-21T04:23:20;8.90;99.90
47521;DHT22;32291;52.010;4.446;2023-02-21T04:24:22;8.90;99.90
47521;DHT22;32291;52.010;4.446;2023-02-21T04:25:29;8.90;99.90
47521;DHT22;32291;52.010;4.446;2023-02-21T04:26:31;8.80;99.90
47521;DHT22;32291;52.010;4.446;2023-02-21T04:27:35;8.80;99.90
47521;DHT22;32291;52.010;4.446;2023-02-21T04:28:41;8.80;99.90
47521;DHT22;32291;52.010;4.446;2023-02-21T04:29:42;8.90;99.90
47521;DHT22;32291;52.010;4.446;2023-02-21T04:30:44;8.80;99.90
47521;DHT22;32291;52.010;4.446;2023-02-21T04:31:45;8.80;99.90
47521;DHT22;32291;52.010;4.446;2023-02-21T04:32:46;8.90;99.90
47521;DHT22;32291;52.010;4.446;2023-02-21T04:33:48;8.90;99.90
47521;DHT22;32291;52.010;4.446;2023-02-21T04:34:49;8.80;99.90
47521;DHT22;32291;52.010;4.446;2023-02-21T04:35:51;8.90;99.90
47521;DHT22;32291;52.010;4.446;2023-02-21T04:36:52;8.80;99.90
47521;DHT22;32291;52.010;4.446;2023-02-21T04:37:56;8.80;99.90
47521;DHT22;32291;52.010;4.446;2023-02-21T04:38:58;8.80;99.90
47521;DHT22;32291;52.010;4.446;2023-02-21T04:39:59;8.80;99.90
47521;DHT22;32291;52.010;4.446;2023-02-21T04:41:01;8.80;99.90
47521;DHT22;32291;52.010;4.446;2023-02-21T04:42:02;8.80;99.90
47521;DHT22;32291;52.010;4.446;2023-02-21T04:43:04;8.80;99.90
47521;DHT22;32291;52.010;4.446;2023-02-21T04:44:05;8.80;99.90
47521;DHT22;32291;52.010;4.446;2023-02-21T04:45:08;8.80;99.90
47521;DHT22;32291;52.010;4.446;2023-02-21T04:46:10;8.80;99.90
47521;DHT22;32291;52.010;4.446;2023-02-21T04:47:16;8.80;99.90
47521;DHT22;32291;52.010;4.446;2023-02-21T04:48:17;8.80;99.90
47521;DHT22;32291;52.010;4.446;2023-02-21T04:49:18;8.80;99.90
47521;DHT22;32291;52.010;4.446;2023-02-21T04:50:19;8.80;99.90
47521;DHT22;32291;52.010;4.446;2023-02-21T04:51:22;8.80;99.90
47521;DHT22;32291;52.010;4.446;2023-02-21T04:52:24;8.80;99.90
47521;DHT22;32291;52.010;4.446;2023-02-21T04:53:25;8.80;99.90
47521;DHT22;32291;52.010;4.446;2023-02-21T04:54:27;8.70;99.90
47521;DHT22;32291;52.010;4.446;2023-02-21T04:55:28;8.70;99.90
47521;DHT22;32291;52.010;4.446;2023-02-21T04:56:29;8.80;99.90
47521;DHT22;32291;52.010;4.446;2023-02-21T04:57:32;8.80;99.90
47521;DHT22;32291;52.010;4.446;2023-02-21T04:58:34;8.80;99.90
47521;DHT22;32291;52.010;4.446;2023-02-21T04:59:35;8.70;99.90
47521;DHT22;32291;52.010;4.446;2023-02-21T05:00:37;8.70;99.90
47521;DHT22;32291;52.010;4.446;2023-02-21T05:01:39;8.70;99.90
47521;DHT22;32291;52.010;4.446;2023-02-21T05:02:44;8.80;99.90
47521;DHT22;32291;52.010;4.446;2023-02-21T05:03:46;8.70;99.90
47521;DHT22;32291;52.010;4.446;2023-02-21T05:04:47;8.80;99.90
47521;DHT22;32291;52.010;4.446;2023-02-21T05:05:49;8.70;99.90
47521;DHT22;32291;52.010;4.446;2023-02-21T05:06:50;8.70;99.90
47521;DHT22;32291;52.010;4.446;2023-02-21T05:07:52;8.70;99.90
47521;DHT22;32291;52.010;4.446;2023-02-21T05:08:53;8.70;99.90
47521;DHT22;32291;52.010;4.446;2023-02-21T05:09:55;8.70;99.90
47521;DHT22;32291;52.010;4.446;2023-02-21T05:10:56;8.70;99.90
47521;DHT22;32291;52.010;4.446;2023-02-21T05:11:58;8.70;99.90
47521;DHT22;32291;52.010;4.446;2023-02-21T05:12:59;8.70;99.90
47521;DHT22;32291;52.010;4.446;2023-02-21T05:14:01;8.70;99.90
47521;DHT22;32291;52.010;4.446;2023-02-21T05:15:03;8.70;99.90
47521;DHT22;32291;52.010;4.446;2023-02-21T05:16:05;8.70;99.90
47521;DHT22;32291;52.010;4.446;2023-02-21T05:17:07;8.80;99.90
47521;DHT22;32291;52.010;4.446;2023-02-21T05:18:09;8.70;99.90
47521;DHT22;32291;52.010;4.446;2023-02-21T05:19:10;8.70;99.90
47521;DHT22;32291;52.010;4.446;2023-02-21T05:20:11;8.70;99.90
47521;DHT22;32291;52.010;4.446;2023-02-21T05:21:14;8.80;99.90
47521;DHT22;32291;52.010;4.446;2023-02-21T05:22:16;8.80;99.90
47521;DHT22;32291;52.010;4.446;2023-02-21T05:23:20;8.80;99.90
47521;DHT22;32291;52.010;4.446;2023-02-21T05:24:34;8.80;99.90
47521;DHT22;32291;52.010;4.446;2023-02-21T05:25:35;8.80;99.90
47521;DHT22;32291;52.010;4.446;2023-02-21T05:26:37;8.80;99.90
47521;DHT22;32291;52.010;4.446;2023-02-21T05:27:39;8.80;99.90
47521;DHT22;32291;52.010;4.446;2023-02-21T05:28:40;8.90;99.90
47521;DHT22;32291;52.010;4.446;2023-02-21T05:29:49;8.90;99.90
47521;DHT22;32291;52.010;4.446;2023-02-21T05:30:50;8.80;99.90
47521;DHT22;32291;52.010;4.446;2023-02-21T05:31:52;8.90;99.90
47521;DHT22;32291;52.010;4.446;2023-02-21T05:32:54;8.90;99.90
47521;DHT22;32291;52.010;4.446;2023-02-21T05:33:55;8.80;99.90
47521;DHT22;32291;52.010;4.446;2023-02-21T05:34:57;8.80;99.90
47521;DHT22;32291;52.010;4.446;2023-02-21T05:35:58;8.80;99.90
47521;DHT22;32291;52.010;4.446;2023-02-21T05:37:00;8.90;99.90
47521;DHT22;32291;52.010;4.446;2023-02-21T05:38:01;8.90;99.90
47521;DHT22;32291;52.010;4.446;2023-02-21T05:39:03;8.90;99.90
47521;DHT22;32291;52.010;4.446;2023-02-21T05:40:05;8.90;99.90
47521;DHT22;32291;52.010;4.446;2023-02-21T05:41:07;8.90;99.90
47521;DHT22;32291;52.010;4.446;2023-02-21T05:42:09;8.90;99.90
47521;DHT22;32291;52.010;4.446;2023-02-21T05:43:10;8.90;99.90
47521;DHT22;32291;52.010;4.446;2023-02-21T05:44:12;8.90;99.90
47521;DHT22;32291;52.010;4.446;2023-02-21T05:45:13;8.90;99.90
47521;DHT22;32291;52.010;4.446;2023-02-21T05:46:33;8.90;99.90
47521;DHT22;32291;52.010;4.446;2023-02-21T05:47:34;8.90;99.90
47521;DHT22;32291;52.010;4.446;2023-02-21T05:48:36;8.80;99.90
47521;DHT22;32291;52.010;4.446;2023-02-21T05:49:37;8.90;99.90
47521;DHT22;32291;52.010;4.446;2023-02-21T05:50:40;8.90;99.90
47521;DHT22;32291;52.010;4.446;2023-02-21T05:51:42;8.90;99.90
47521;DHT22;32291;52.010;4.446;2023-02-21T05:52:44;8.90;99.90
47521;DHT22;32291;52.010;4.446;2023-02-21T05:53:46;8.80;99.90
47521;DHT22;32291;52.010;4.446;2023-02-21T05:54:48;8.80;99.90
47521;DHT22;32291;52.010;4.446;2023-02-21T05:55:49;8.80;99.90
47521;DHT22;32291;52.010;4.446;2023-02-21T05:56:51;8.90;99.90
47521;DHT22;32291;52.010;4.446;2023-02-21T05:57:53;8.80;99.90
47521;DHT22;32291;52.010;4.446;2023-02-21T05:58:55;8.90;99.90
47521;DHT22;32291;52.010;4.446;2023-02-21T05:59:56;8.90;99.90
47521;DHT22;32291;52.010;4.446;2023-02-21T06:00:58;9.00;99.90
47521;DHT22;32291;52.010;4.446;2023-02-21T06:02:00;9.00;99.90
47521;DHT22;32291;52.010;4.446;2023-02-21T06:03:01;8.90;99.90
47521;DHT22;32291;52.010;4.446;2023-02-21T06:04:03;8.90;99.90
47521;DHT22;32291;52.010;4.446;2023-02-21T06:05:05;8.90;99.90
47521;DHT22;32291;52.010;4.446;2023-02-21T06:06:07;8.80;99.90
47521;DHT22;32291;52.010;4.446;2023-02-21T06:07:09;8.80;99.90
47521;DHT22;32291;52.010;4.446;2023-02-21T06:08:10;8.80;99.90
47521;DHT22;32291;52.010;4.446;2023-02-21T06:09:12;8.80;99.90
47521;DHT22;32291;52.010;4.446;2023-02-21T06:10:15;8.80;99.90
47521;DHT22;32291;52.010;4.446;2023-02-21T06:11:27;8.80;99.90
47521;DHT22;32291;52.010;4.446;2023-02-21T06:12:30;8.80;99.90
47521;DHT22;32291;52.010;4.446;2023-02-21T06:13:32;8.80;99.90
47521;DHT22;32291;52.010;4.446;2023-02-21T06:14:33;8.90;99.90
47521;DHT22;32291;52.010;4.446;2023-02-21T06:15:35;8.90;99.90
47521;DHT22;32291;52.010;4.446;2023-02-21T06:16:37;8.90;99.90
47521;DHT22;32291;52.010;4.446;2023-02-21T06:17:40;8.90;99.90
47521;DHT22;32291;52.010;4.446;2023-02-21T06:18:41;8.90;99.90
47521;DHT22;32291;52.010;4.446;2023-02-21T06:19:43;8.90;99.90
47521;DHT22;32291;52.010;4.446;2023-02-21T06:20:44;9.00;99.90
47521;DHT22;32291;52.010;4.446;2023-02-21T06:21:46;8.90;99.90
47521;DHT22;32291;52.010;4.446;2023-02-21T06:22:48;8.90;99.90
47521;DHT22;32291;52.010;4.446;2023-02-21T06:23:49;8.90;99.90
47521;DHT22;32291;52.010;4.446;2023-02-21T06:24:51;8.90;99.90
47521;DHT22;32291;52.010;4.446;2023-02-21T06:25:52;8.80;99.90
47521;DHT22;32291;52.010;4.446;2023-02-21T06:26:54;8.80;99.90
47521;DHT22;32291;52.010;4.446;2023-02-21T06:27:56;8.80;99.90
47521;DHT22;32291;52.010;4.446;2023-02-21T06:28:57;8.80;99.90
47521;DHT22;32291;52.010;4.446;2023-02-21T06:29:59;8.80;99.90
47521;DHT22;32291;52.010;4.446;2023-02-21T06:31:02;8.80;99.90
47521;DHT22;32291;52.010;4.446;2023-02-21T06:32:04;8.80;99.90
47521;DHT22;32291;52.010;4.446;2023-02-21T06:33:06;8.80;99.90
47521;DHT22;32291;52.010;4.446;2023-02-21T06:34:07;8.90;99.90
47521;DHT22;32291;52.010;4.446;2023-02-21T06:35:09;8.80;99.90
47521;DHT22;32291;52.010;4.446;2023-02-21T06:36:22;8.80;99.90
47521;DHT22;32291;52.010;4.446;2023-02-21T06:37:24;8.90;99.90
47521;DHT22;32291;52.010;4.446;2023-02-21T06:38:26;8.90;99.90
47521;DHT22;32291;52.010;4.446;2023-02-21T06:39:27;8.90;99.90
47521;DHT22;32291;52.010;4.446;2023-02-21T06:40:29;8.90;99.90
47521;DHT22;32291;52.010;4.446;2023-02-21T06:41:30;8.90;99.90
47521;DHT22;32291;52.010;4.446;2023-02-21T06:42:32;8.90;99.90
47521;DHT22;32291;52.010;4.446;2023-02-21T06:43:35;8.90;99.90
47521;DHT22;32291;52.010;4.446;2023-02-21T06:44:41;8.90;99.90
47521;DHT22;32291;52.010;4.446;2023-02-21T06:45:43;8.90;99.90
47521;DHT22;32291;52.010;4.446;2023-02-21T06:46:44;8.90;99.90
47521;DHT22;32291;52.010;4.446;2023-02-21T06:47:46;8.90;99.90
47521;DHT22;32291;52.010;4.446;2023-02-21T06:48:48;8.90;99.90
47521;DHT22;32291;52.010;4.446;2023-02-21T06:49:50;8.80;99.90
47521;DHT22;32291;52.010;4.446;2023-02-21T06:50:52;8.80;99.90
47521;DHT22;32291;52.010;4.446;2023-02-21T06:51:53;8.80;99.90
47521;DHT22;32291;52.010;4.446;2023-02-21T06:52:55;8.80;99.90
47521;DHT22;32291;52.010;4.446;2023-02-21T06:53:57;8.80;99.90
47521;DHT22;32291;52.010;4.446;2023-02-21T06:54:58;8.80;99.90
47521;DHT22;32291;52.010;4.446;2023-02-21T06:55:59;8.80;99.90
47521;DHT22;32291;52.010;4.446;2023-02-21T06:57:01;8.80;99.90
47521;DHT22;32291;52.010;4.446;2023-02-21T06:58:02;8.80;99.90
47521;DHT22;32291;52.010;4.446;2023-02-21T06:59:04;8.80;99.90
47521;DHT22;32291;52.010;4.446;2023-02-21T07:00:06;8.90;99.90
47521;DHT22;32291;52.010;4.446;2023-02-21T07:01:07;8.90;99.90
47521;DHT22;32291;52.010;4.446;2023-02-21T07:02:15;8.90;99.90
47521;DHT22;32291;52.010;4.446;2023-02-21T07:03:20;8.80;99.90
47521;DHT22;32291;52.010;4.446;2023-02-21T07:04:22;8.80;99.90
47521;DHT22;32291;52.010;4.446;2023-02-21T07:05:24;8.80;99.90
47521;DHT22;32291;52.010;4.446;2023-02-21T07:06:26;8.90;99.90
47521;DHT22;32291;52.010;4.446;2023-02-21T07:07:28;8.90;99.90
47521;DHT22;32291;52.010;4.446;2023-02-21T07:08:30;8.90;99.90
47521;DHT22;32291;52.010;4.446;2023-02-21T07:09:31;9.00;99.90
47521;DHT22;32291;52.010;4.446;2023-02-21T07:10:33;9.00;99.90
47521;DHT22;32291;52.010;4.446;2023-02-21T07:11:34;9.00;99.90
47521;DHT22;32291;52.010;4.446;2023-02-21T07:12:36;9.00;99.90
47521;DHT22;32291;52.010;4.446;2023-02-21T07:13:37;9.00;99.90
47521;DHT22;32291;52.010;4.446;2023-02-21T07:14:39;8.90;99.90
47521;DHT22;32291;52.010;4.446;2023-02-21T07:15:41;8.90;99.90
47521;DHT22;32291;52.010;4.446;2023-02-21T07:16:43;8.90;99.90
47521;DHT22;32291;52.010;4.446;2023-02-21T07:17:44;8.90;99.90
47521;DHT22;32291;52.010;4.446;2023-02-21T07:18:46;8.90;99.90
47521;DHT22;32291;52.010;4.446;2023-02-21T07:19:47;9.00;99.90
47521;DHT22;32291;52.010;4.446;2023-02-21T07:20:49;9.00;99.90
47521;DHT22;32291;52.010;4.446;2023-02-21T07:21:51;9.00;99.90
47521;DHT22;32291;52.010;4.446;2023-02-21T07:22:52;9.00;99.90
47521;DHT22;32291;52.010;4.446;2023-02-21T07:23:53;9.00;99.90
47521;DHT22;32291;52.010;4.446;2023-02-21T07:24:55;9.00;99.90
47521;DHT22;32291;52.010;4.446;2023-02-21T07:25:56;9.00;99.90
47521;DHT22;32291;52.010;4.446;2023-02-21T07:26:58;9.10;99.90
47521;DHT22;32291;52.010;4.446;2023-02-21T07:27:59;9.10;99.90
47521;DHT22;32291;52.010;4.446;2023-02-21T07:29:02;9.20;99.90
47521;DHT22;32291;52.010;4.446;2023-02-21T07:30:04;9.20;99.90
47521;DHT22;32291;52.010;4.446;2023-02-21T07:31:05;9.10;99.90
47521;DHT22;32291;52.010;4.446;2023-02-21T07:32:07;9.10;99.90
47521;DHT22;32291;52.010;4.446;2023-02-21T07:33:08;9.10;99.90
47521;DHT22;32291;52.010;4.446;2023-02-21T07:34:10;9.10;99.90
47521;DHT22;32291;52.010;4.446;2023-02-21T07:35:12;9.10;99.90
47521;DHT22;32291;52.010;4.446;2023-02-21T07:36:14;9.10;99.90
47521;DHT22;32291;52.010;4.446;2023-02-21T07:37:16;9.10;99.90
47521;DHT22;32291;52.010;4.446;2023-02-21T07:38:21;9.10;99.90
47521;DHT22;32291;52.010;4.446;2023-02-21T07:39:23;9.10;99.90
47521;DHT22;32291;52.010;4.446;2023-02-21T07:40:24;9.10;99.90
47521;DHT22;32291;52.010;4.446;2023-02-21T07:41:26;9.10;99.90
47521;DHT22;32291;52.010;4.446;2023-02-21T07:42:28;9.10;99.90
47521;DHT22;32291;52.010;4.446;2023-02-21T07:43:30;9.20;99.90
47521;DHT22;32291;52.010;4.446;2023-02-21T07:44:32;9.20;99.90
47521;DHT22;32291;52.010;4.446;2023-02-21T07:45:34;9.20;99.90